sensor_id;sensor_type;location;lat;lon;timestamp;pressure;altitude;pressure_sealevel;temperature;humidity
37610;BME280;23457;51.966;8.230;2023-09-19T00:00:22;99991.50;;;17.28;100.00
37610;BME280;23457;51.966;8.230;2023-09-19T00:02:56;99987.63;;;17.06;100.00
37610;BME280;23457;51.966;8.230;2023-09-19T00:05:24;99992.00;;;17.07;100.00
37610;BME280;23457;51.966;8.230;2023-09-19T00:07:52;100000.28;;;17.27;100.00
37610;BME280;23457;51.966;8.230;2023-09-19T00:10:25;100003.75;;;17.29;100.00
37610;BME280;23457;51.966;8.230;2023-09-19T00:12:53;100003.94;;;17.20;100.00
37610;BME280;23457;51.966;8.230;2023-09-19T00:15:26;100007.78;;;17.05;100.00
37610;BME280;23457;51.966;8.230;2023-09-19T00:17:55;100008.44;;;17.15;100.00
37610;BME280;23457;51.966;8.230;2023-09-19T00:20:23;100017.38;;;17.06;100.00
37610;BME280;23457;51.966;8.230;2023-09-19T00:22:51;100012.91;;;17.10;100.00
37610;BME280;23457;51.966;8.230;2023-09-19T00:25:20;100018.16;;;17.10;100.00
37610;BME280;23457;51.966;8.230;2023-09-19T00:27:47;100020.03;;;17.05;100.00
37610;BME280;23457;51.966;8.230;2023-09-19T00:30:16;100022.69;;;17.03;100.00
37610;BME280;23457;51.966;8.230;2023-09-19T00:32:50;100027.13;;;17.00;100.00
37610;BME280;23457;51.966;8.230;2023-09-19T00:35:21;100017.81;;;16.85;100.00
37610;BME280;23457;51.966;8.230;2023-09-19T00:37:52;100022.63;;;17.06;100.00
37610;BME280;23457;51.966;8.230;2023-09-19T00:40:19;100028.91;;;16.98;100.00
37610;BME280;23457;51.966;8.230;2023-09-19T00:42:48;100030.00;;;16.88;100.00
37610;BME280;23457;51.966;8.230;2023-09-19T00:45:17;100038.03;;;16.81;100.00
37610;BME280;23457;51.966;8.230;2023-09-19T00:47:47;100039.56;;;16.92;100.00
37610;BME280;23457;51.966;8.230;2023-09-19T00:50:20;100033.47;;;16.90;100.00
37610;BME280;23457;51.966;8.230;2023-09-19T00:52:49;100041.16;;;16.99;100.00
37610;BME280;23457;51.966;8.230;2023-09-19T00:55:17;100043.91;;;16.93;100.00
37610;BME280;23457;51.966;8.230;2023-09-19T00:57:47;100044.03;;;16.87;100.00
37610;BME280;23457;51.966;8.230;2023-09-19T01:00:16;100053.47;;;16.97;100.00
37610;BME280;23457;51.966;8.230;2023-09-19T01:02:47;100050.13;;;16.89;100.00
37610;BME280;23457;51.966;8.230;2023-09-19T01:05:15;100055.34;;;16.89;100.00
37610;BME280;23457;51.966;8.230;2023-09-19T01:07:42;100064.06;;;16.91;100.00
37610;BME280;23457;51.966;8.230;2023-09-19T01:10:13;100064.25;;;16.81;100.00
37610;BME280;23457;51.966;8.230;2023-09-19T01:15:37;100076.41;;;16.86;100.00
37610;BME280;23457;51.966;8.230;2023-09-19T01:20:40;100068.25;;;16.99;100.00
37610;BME280;23457;51.966;8.230;2023-09-19T01:23:48;100074.34;;;17.01;100.00
37610;BME280;23457;51.966;8.230;2023-09-19T01:32:03;100078.03;;;16.93;100.00
37610;BME280;23457;51.966;8.230;2023-09-19T01:34:48;100087.41;;;17.04;100.00
37610;BME280;23457;51.966;8.230;2023-09-19T01:37:20;100087.34;;;17.09;100.00
37610;BME280;23457;51.966;8.230;2023-09-19T01:39:50;100084.56;;;17.15;100.00
37610;BME280;23457;51.966;8.230;2023-09-19T01:42:41;100090.13;;;17.00;100.00
37610;BME280;23457;51.966;8.230;2023-09-19T01:50:48;100093.53;;;17.05;100.00
37610;BME280;23457;51.966;8.230;2023-09-19T01:53:28;100098.88;;;17.00;100.00
37610;BME280;23457;51.966;8.230;2023-09-19T01:55:57;100100.81;;;16.91;100.00
37610;BME280;23457;51.966;8.230;2023-09-19T01:58:39;100100.63;;;17.00;100.00
37610;BME280;23457;51.966;8.230;2023-09-19T02:01:12;100097.78;;;17.10;100.00
37610;BME280;23457;51.966;8.230;2023-09-19T02:03:42;100104.41;;;16.85;100.00
37610;BME280;23457;51.966;8.230;2023-09-19T02:06:17;100109.47;;;16.96;100.00
37610;BME280;23457;51.966;8.230;2023-09-19T02:08:45;100112.78;;;17.05;100.00
37610;BME280;23457;51.966;8.230;2023-09-19T02:11:12;100107.66;;;16.98;100.00
37610;BME280;23457;51.966;8.230;2023-09-19T02:13:39;100102.34;;;17.01;100.00
37610;BME280;23457;51.966;8.230;2023-09-19T02:16:09;100112.03;;;16.99;100.00
37610;BME280;23457;51.966;8.230;2023-09-19T02:18:38;100111.06;;;17.03;100.00
37610;BME280;23457;51.966;8.230;2023-09-19T02:21:05;100118.31;;;16.92;100.00
37610;BME280;23457;51.966;8.230;2023-09-19T02:23:37;100119.13;;;16.94;100.00
37610;BME280;23457;51.966;8.230;2023-09-19T02:26:06;100119.09;;;16.97;100.00
37610;BME280;23457;51.966;8.230;2023-09-19T02:28:32;100120.16;;;16.85;100.00
37610;BME280;23457;51.966;8.230;2023-09-19T02:30:59;100121.91;;;16.84;100.00
37610;BME280;23457;51.966;8.230;2023-09-19T02:33:26;100121.03;;;16.86;100.00
37610;BME280;23457;51.966;8.230;2023-09-19T02:35:56;100115.94;;;16.78;100.00
37610;BME280;23457;51.966;8.230;2023-09-19T02:38:27;100121.22;;;16.76;100.00
37610;BME280;23457;51.966;8.230;2023-09-19T02:40:55;100124.38;;;16.95;100.00
37610;BME280;23457;51.966;8.230;2023-09-19T02:43:22;100125.38;;;16.87;100.00
37610;BME280;23457;51.966;8.230;2023-09-19T02:45:50;100132.78;;;16.66;100.00
37610;BME280;23457;51.966;8.230;2023-09-19T02:48:16;100127.34;;;16.75;100.00
37610;BME280;23457;51.966;8.230;2023-09-19T02:50:46;100134.47;;;16.70;100.00
37610;BME280;23457;51.966;8.230;2023-09-19T02:53:13;100130.75;;;16.80;100.00
37610;BME280;23457;51.966;8.230;2023-09-19T02:55:40;100129.31;;;16.64;100.00
37610;BME280;23457;51.966;8.230;2023-09-19T02:58:07;100139.88;;;16.58;100.00
37610;BME280;23457;51.966;8.230;2023-09-19T03:00:41;100147.03;;;16.48;100.00
37610;BME280;23457;51.966;8.230;2023-09-19T03:03:14;100157.50;;;16.50;100.00
37610;BME280;23457;51.966;8.230;2023-09-19T03:05:43;100145.00;;;16.67;100.00
37610;BME280;23457;51.966;8.230;2023-09-19T03:08:15;100149.44;;;16.64;100.00
37610;BME280;23457;51.966;8.230;2023-09-19T03:10:47;100143.53;;;16.49;100.00
37610;BME280;23457;51.966;8.230;2023-09-19T03:13:15;100153.16;;;16.47;100.00
37610;BME280;23457;51.966;8.230;2023-09-19T03:15:42;100159.38;;;16.43;100.00
37610;BME280;23457;51.966;8.230;2023-09-19T03:18:16;100154.16;;;16.42;100.00
37610;BME280;23457;51.966;8.230;2023-09-19T03:20:52;100159.41;;;16.42;100.00
37610;BME280;23457;51.966;8.230;2023-09-19T03:23:22;100165.81;;;16.23;100.00
37610;BME280;23457;51.966;8.230;2023-09-19T03:25:49;100163.97;;;16.29;100.00
37610;BME280;23457;51.966;8.230;2023-09-19T03:28:16;100176.16;;;16.33;100.00
37610;BME280;23457;51.966;8.230;2023-09-19T03:30:44;100159.84;;;16.15;100.00
37610;BME280;23457;51.966;8.230;2023-09-19T03:33:12;100169.50;;;16.11;100.00
37610;BME280;23457;51.966;8.230;2023-09-19T03:35:39;100168.34;;;16.29;100.00
37610;BME280;23457;51.966;8.230;2023-09-19T03:38:06;100167.72;;;16.13;100.00
37610;BME280;23457;51.966;8.230;2023-09-19T03:40:33;100162.38;;;16.21;100.00
37610;BME280;23457;51.966;8.230;2023-09-19T03:43:02;100169.25;;;16.26;100.00
37610;BME280;23457;51.966;8.230;2023-09-19T03:45:29;100171.94;;;16.22;100.00
37610;BME280;23457;51.966;8.230;2023-09-19T03:47:56;100176.13;;;15.76;100.00
37610;BME280;23457;51.966;8.230;2023-09-19T03:50:24;100165.59;;;15.81;100.00
37610;BME280;23457;51.966;8.230;2023-09-19T03:52:56;100163.50;;;16.03;100.00
37610;BME280;23457;51.966;8.230;2023-09-19T03:55:22;100172.47;;;15.88;100.00
37610;BME280;23457;51.966;8.230;2023-09-19T03:57:49;100170.81;;;15.81;100.00
37610;BME280;23457;51.966;8.230;2023-09-19T04:00:17;100169.84;;;15.88;100.00
37610;BME280;23457;51.966;8.230;2023-09-19T04:02:48;100175.81;;;15.96;100.00
37610;BME280;23457;51.966;8.230;2023-09-19T04:05:15;100175.06;;;15.88;100.00
37610;BME280;23457;51.966;8.230;2023-09-19T04:07:42;100176.09;;;15.78;100.00
37610;BME280;23457;51.966;8.230;2023-09-19T04:10:09;100179.63;;;15.74;100.00
37610;BME280;23457;51.966;8.230;2023-09-19T04:12:38;100179.03;;;15.55;100.00
37610;BME280;23457;51.966;8.230;2023-09-19T04:15:05;100179.00;;;15.57;100.00
37610;BME280;23457;51.966;8.230;2023-09-19T04:17:32;100174.66;;;15.56;100.00
37610;BME280;23457;51.966;8.230;2023-09-19T04:20:00;100178.19;;;15.50;100.00
37610;BME280;23457;51.966;8.230;2023-09-19T04:22:26;100178.16;;;15.55;100.00
37610;BME280;23457;51.966;8.230;2023-09-19T04:24:53;100181.41;;;15.72;100.00
37610;BME280;23457;51.966;8.230;2023-09-19T04:27:20;100180.66;;;15.62;100.00
37610;BME280;23457;51.966;8.230;2023-09-19T04:29:47;100184.25;;;15.52;100.00
37610;BME280;23457;51.966;8.230;2023-09-19T04:32:14;100190.44;;;15.47;100.00
37610;BME280;23457;51.966;8.230;2023-09-19T04:34:42;100192.00;;;15.63;100.00
37610;BME280;23457;51.966;8.230;2023-09-19T04:37:09;100186.03;;;15.50;100.00
37610;BME280;23457;51.966;8.230;2023-09-19T04:39:37;100197.25;;;15.64;100.00
37610;BME280;23457;51.966;8.230;2023-09-19T04:42:04;100197.56;;;15.34;100.00
37610;BME280;23457;51.966;8.230;2023-09-19T04:44:31;100205.53;;;15.25;100.00
37610;BME280;23457;51.966;8.230;2023-09-19T04:46:57;100204.75;;;15.20;100.00
37610;BME280;23457;51.966;8.230;2023-09-19T04:49:26;100200.44;;;15.13;100.00
37610;BME280;23457;51.966;8.230;2023-09-19T04:51:52;100208.09;;;15.31;100.00
37610;BME280;23457;51.966;8.230;2023-09-19T04:54:20;100215.13;;;15.24;100.00
37610;BME280;23457;51.966;8.230;2023-09-19T04:56:46;100222.25;;;15.13;100.00
37610;BME280;23457;51.966;8.230;2023-09-19T04:59:13;100227.44;;;15.16;100.00
37610;BME280;23457;51.966;8.230;2023-09-19T05:01:41;100225.72;;;15.15;100.00
37610;BME280;23457;51.966;8.230;2023-09-19T05:04:08;100230.25;;;14.96;100.00
37610;BME280;23457;51.966;8.230;2023-09-19T05:06:34;100226.63;;;15.11;100.00
37610;BME280;23457;51.966;8.230;2023-09-19T05:09:02;100223.09;;;15.14;100.00
37610;BME280;23457;51.966;8.230;2023-09-19T05:11:31;100229.09;;;15.23;100.00
37610;BME280;23457;51.966;8.230;2023-09-19T05:13:58;100228.19;;;15.27;100.00
37610;BME280;23457;51.966;8.230;2023-09-19T05:16:28;100223.13;;;15.12;100.00
37610;BME280;23457;51.966;8.230;2023-09-19T05:18:56;100228.31;;;15.17;100.00
37610;BME280;23457;51.966;8.230;2023-09-19T05:21:23;100239.81;;;15.02;100.00
37610;BME280;23457;51.966;8.230;2023-09-19T05:23:51;100245.72;;;15.21;100.00
37610;BME280;23457;51.966;8.230;2023-09-19T05:26:18;100253.72;;;15.07;100.00
37610;BME280;23457;51.966;8.230;2023-09-19T05:28:45;100260.03;;;14.83;100.00
37610;BME280;23457;51.966;8.230;2023-09-19T05:31:11;100277.28;;;15.07;100.00
37610;BME280;23457;51.966;8.230;2023-09-19T05:33:39;100271.94;;;15.19;100.00
37610;BME280;23457;51.966;8.230;2023-09-19T05:36:06;100278.16;;;15.06;100.00
37610;BME280;23457;51.966;8.230;2023-09-19T05:38:36;100283.34;;;15.09;100.00
37610;BME280;23457;51.966;8.230;2023-09-19T05:41:03;100271.09;;;15.11;100.00
37610;BME280;23457;51.966;8.230;2023-09-19T05:43:29;100276.38;;;15.08;100.00
37610;BME280;23457;51.966;8.230;2023-09-19T05:45:59;100287.78;;;15.01;100.00
37610;BME280;23457;51.966;8.230;2023-09-19T05:48:26;100298.25;;;15.01;100.00
37610;BME280;23457;51.966;8.230;2023-09-19T05:50:53;100294.69;;;15.08;100.00
37610;BME280;23457;51.966;8.230;2023-09-19T05:53:20;100297.19;;;15.20;100.00
37610;BME280;23457;51.966;8.230;2023-09-19T05:55:47;100302.50;;;15.14;100.00
37610;BME280;23457;51.966;8.230;2023-09-19T05:58:13;100299.13;;;15.00;100.00
37610;BME280;23457;51.966;8.230;2023-09-19T06:00:40;100299.00;;;15.15;100.00
37610;BME280;23457;51.966;8.230;2023-09-19T06:03:09;100300.78;;;15.10;100.00
37610;BME280;23457;51.966;8.230;2023-09-19T06:05:36;100295.53;;;15.10;100.00
37610;BME280;23457;51.966;8.230;2023-09-19T06:08:06;100295.50;;;15.15;100.00
37610;BME280;23457;51.966;8.230;2023-09-19T06:10:35;100286.72;;;15.20;100.00
37610;BME280;23457;51.966;8.230;2023-09-19T06:13:02;100286.78;;;15.14;100.00
37610;BME280;23457;51.966;8.230;2023-09-19T06:15:32;100288.56;;;15.12;100.00
37610;BME280;23457;51.966;8.230;2023-09-19T06:18:00;100283.31;;;15.12;100.00
37610;BME280;23457;51.966;8.230;2023-09-19T06:20:28;100270.91;;;15.32;100.00
37610;BME280;23457;51.966;8.230;2023-09-19T06:22:56;100284.75;;;15.44;100.00
37610;BME280;23457;51.966;8.230;2023-09-19T06:25:23;100284.75;;;15.44;100.00
37610;BME280;23457;51.966;8.230;2023-09-19T06:27:52;100286.56;;;15.35;100.00
37610;BME280;23457;51.966;8.230;2023-09-19T06:30:20;100289.88;;;15.54;100.00
37610;BME280;23457;51.966;8.230;2023-09-19T06:32:47;100288.88;;;15.67;100.00
37610;BME280;23457;51.966;8.230;2023-09-19T06:35:15;100279.28;;;15.68;100.00
37610;BME280;23457;51.966;8.230;2023-09-19T06:37:43;100300.97;;;15.81;100.00
37610;BME280;23457;51.966;8.230;2023-09-19T06:40:11;100300.25;;;15.68;100.00
37610;BME280;23457;51.966;8.230;2023-09-19T06:42:42;100296.88;;;15.57;100.00
37610;BME280;23457;51.966;8.230;2023-09-19T06:45:08;100301.13;;;15.65;100.00
37610;BME280;23457;51.966;8.230;2023-09-19T06:47:38;100301.09;;;15.70;100.00
37610;BME280;23457;51.966;8.230;2023-09-19T06:50:05;100294.03;;;15.73;100.00
37610;BME280;23457;51.966;8.230;2023-09-19T06:52:35;100293.25;;;15.68;100.00
37610;BME280;23457;51.966;8.230;2023-09-19T06:55:02;100294.91;;;15.75;100.00
37610;BME280;23457;51.966;8.230;2023-09-19T06:57:29;100297.47;;;15.82;100.00
37610;BME280;23457;51.966;8.230;2023-09-19T06:59:57;100295.66;;;15.85;100.00
37610;BME280;23457;51.966;8.230;2023-09-19T07:02:23;100306.34;;;15.70;100.00
37610;BME280;23457;51.966;8.230;2023-09-19T07:04:50;100297.66;;;15.63;100.00
37610;BME280;23457;51.966;8.230;2023-09-19T07:07:17;100302.97;;;15.54;100.00
37610;BME280;23457;51.966;8.230;2023-09-19T07:09:44;100317.75;;;15.63;100.00
37610;BME280;23457;51.966;8.230;2023-09-19T07:12:10;100321.94;;;15.77;100.00
37610;BME280;23457;51.966;8.230;2023-09-19T07:14:38;100327.31;;;15.68;100.00
37610;BME280;23457;51.966;8.230;2023-09-19T07:17:05;100336.94;;;15.65;100.00
37610;BME280;23457;51.966;8.230;2023-09-19T07:19:31;100332.56;;;15.67;100.00
37610;BME280;23457;51.966;8.230;2023-09-19T07:21:58;100335.69;;;15.96;100.00
37610;BME280;23457;51.966;8.230;2023-09-19T07:24:25;100343.78;;;15.78;100.00
37610;BME280;23457;51.966;8.230;2023-09-19T07:26:53;100340.19;;;15.85;100.00
37610;BME280;23457;51.966;8.230;2023-09-19T07:29:20;100345.44;;;15.85;100.00
37610;BME280;23457;51.966;8.230;2023-09-19T07:31:46;100339.00;;;16.10;100.00
37610;BME280;23457;51.966;8.230;2023-09-19T07:34:14;100344.34;;;16.04;100.00
37610;BME280;23457;51.966;8.230;2023-09-19T07:36:40;100336.53;;;15.98;100.00
37610;BME280;23457;51.966;8.230;2023-09-19T07:39:09;100341.63;;;16.10;100.00
37610;BME280;23457;51.966;8.230;2023-09-19T07:41:48;100342.41;;;16.20;100.00
37610;BME280;23457;51.966;8.230;2023-09-19T07:44:16;100343.19;;;16.25;100.00
37610;BME280;23457;51.966;8.230;2023-09-19T07:46:43;100348.41;;;16.28;100.00
37610;BME280;23457;51.966;8.230;2023-09-19T07:49:10;100337.78;;;16.39;100.00
37610;BME280;23457;51.966;8.230;2023-09-19T07:51:38;100346.47;;;16.44;100.00
37610;BME280;23457;51.966;8.230;2023-09-19T07:54:05;100346.63;;;16.32;100.00
37610;BME280;23457;51.966;8.230;2023-09-19T07:56:32;100343.66;;;16.58;100.00
37610;BME280;23457;51.966;8.230;2023-09-19T07:58:59;100346.41;;;16.47;100.00
37610;BME280;23457;51.966;8.230;2023-09-19T08:01:26;100346.69;;;16.26;99.05
37610;BME280;23457;51.966;8.230;2023-09-19T08:03:54;100347.31;;;16.44;100.00
37610;BME280;23457;51.966;8.230;2023-09-19T08:06:21;100340.00;;;16.71;99.35
37610;BME280;23457;51.966;8.230;2023-09-19T08:08:51;100334.06;;;16.55;97.97
37610;BME280;23457;51.966;8.230;2023-09-19T08:11:20;100342.13;;;16.41;98.35
37610;BME280;23457;51.966;8.230;2023-09-19T08:13:48;100344.38;;;16.69;99.97
37610;BME280;23457;51.966;8.230;2023-09-19T08:16:16;100344.25;;;16.78;98.20
37610;BME280;23457;51.966;8.230;2023-09-19T08:18:48;100360.00;;;16.76;97.82
37610;BME280;23457;51.966;8.230;2023-09-19T08:21:21;100354.78;;;16.73;97.43
37610;BME280;23457;51.966;8.230;2023-09-19T08:23:48;100357.22;;;16.86;98.16
37610;BME280;23457;51.966;8.230;2023-09-19T08:26:15;100362.75;;;16.70;98.36
37610;BME280;23457;51.966;8.230;2023-09-19T08:28:41;100366.75;;;16.93;98.71
37610;BME280;23457;51.966;8.230;2023-09-19T08:31:08;100372.00;;;16.93;97.00
37610;BME280;23457;51.966;8.230;2023-09-19T08:33:36;100367.09;;;17.25;96.73
37610;BME280;23457;51.966;8.230;2023-09-19T08:36:04;100368.84;;;17.25;96.59
37610;BME280;23457;51.966;8.230;2023-09-19T08:38:33;100367.47;;;17.02;96.04
37610;BME280;23457;51.966;8.230;2023-09-19T08:41:00;100368.50;;;16.94;96.89
37610;BME280;23457;51.966;8.230;2023-09-19T08:43:27;100375.34;;;17.04;95.97
37610;BME280;23457;51.966;8.230;2023-09-19T08:46:10;100368.06;;;17.21;95.38
37610;BME280;23457;51.966;8.230;2023-09-19T08:48:41;100372.88;;;16.95;94.83
37610;BME280;23457;51.966;8.230;2023-09-19T08:51:21;100373.25;;;17.24;94.16
37610;BME280;23457;51.966;8.230;2023-09-19T08:54:01;100368.09;;;17.18;95.37
37610;BME280;23457;51.966;8.230;2023-09-19T08:56:32;100373.38;;;17.16;95.46
37610;BME280;23457;51.966;8.230;2023-09-19T08:59:02;100375.41;;;17.51;95.10
37610;BME280;23457;51.966;8.230;2023-09-19T09:01:31;100380.19;;;17.28;93.27
37610;BME280;23457;51.966;8.230;2023-09-19T09:03:59;100380.44;;;17.11;95.45
37610;BME280;23457;51.966;8.230;2023-09-19T09:06:28;100380.22;;;17.25;94.81
37610;BME280;23457;51.966;8.230;2023-09-19T09:08:55;100386.31;;;17.29;93.39
37610;BME280;23457;51.966;8.230;2023-09-19T09:11:22;100388.97;;;17.27;93.49
37610;BME280;23457;51.966;8.230;2023-09-19T09:13:52;100389.81;;;17.29;93.97
37610;BME280;23457;51.966;8.230;2023-09-19T09:16:18;100386.13;;;17.39;93.30
37610;BME280;23457;51.966;8.230;2023-09-19T09:18:46;100374.72;;;17.40;94.26
37610;BME280;23457;51.966;8.230;2023-09-19T09:21:18;100382.19;;;17.66;92.97
37610;BME280;23457;51.966;8.230;2023-09-19T09:23:49;100374.16;;;17.74;92.42
37610;BME280;23457;51.966;8.230;2023-09-19T09:26:16;100383.06;;;17.67;91.49
37610;BME280;23457;51.966;8.230;2023-09-19T09:28:46;100384.56;;;17.80;91.99
37610;BME280;23457;51.966;8.230;2023-09-19T09:31:24;100373.16;;;17.81;91.86
37610;BME280;23457;51.966;8.230;2023-09-19T09:33:56;100373.75;;;17.95;93.32
37610;BME280;23457;51.966;8.230;2023-09-19T09:36:37;100377.97;;;18.02;90.02
37610;BME280;23457;51.966;8.230;2023-09-19T09:39:04;100374.53;;;17.99;89.92
37610;BME280;23457;51.966;8.230;2023-09-19T09:41:52;100359.56;;;18.04;89.87
37610;BME280;23457;51.966;8.230;2023-09-19T09:44:19;100383.09;;;18.10;90.21
37610;BME280;23457;51.966;8.230;2023-09-19T09:46:47;100369.22;;;18.02;87.63
37610;BME280;23457;51.966;8.230;2023-09-19T09:49:25;100375.94;;;18.16;87.96
37610;BME280;23457;51.966;8.230;2023-09-19T09:52:06;100361.13;;;18.12;87.78
37610;BME280;23457;51.966;8.230;2023-09-19T09:54:37;100367.38;;;18.07;88.64
37610;BME280;23457;51.966;8.230;2023-09-19T09:57:10;100365.88;;;18.37;87.10
37610;BME280;23457;51.966;8.230;2023-09-19T09:59:53;100357.34;;;18.25;85.67
37610;BME280;23457;51.966;8.230;2023-09-19T10:02:25;100352.03;;;18.29;85.64
37610;BME280;23457;51.966;8.230;2023-09-19T10:04:56;100357.34;;;18.25;84.19
37610;BME280;23457;51.966;8.230;2023-09-19T10:07:46;100373.81;;;18.75;83.71
37610;BME280;23457;51.966;8.230;2023-09-19T10:10:34;100376.84;;;18.58;82.53
37610;BME280;23457;51.966;8.230;2023-09-19T10:13:20;100370.72;;;18.58;84.36
37610;BME280;23457;51.966;8.230;2023-09-19T10:15:51;100376.41;;;18.77;84.38
37610;BME280;23457;51.966;8.230;2023-09-19T10:18:25;100370.03;;;18.48;83.32
37610;BME280;23457;51.966;8.230;2023-09-19T10:20:52;100369.03;;;18.52;84.69
37610;BME280;23457;51.966;8.230;2023-09-19T10:23:20;100375.25;;;18.88;84.34
37610;BME280;23457;51.966;8.230;2023-09-19T10:25:50;100369.69;;;19.01;83.84
37610;BME280;23457;51.966;8.230;2023-09-19T10:28:18;100373.34;;;18.96;83.20
37610;BME280;23457;51.966;8.230;2023-09-19T10:30:51;100380.69;;;18.82;82.84
37610;BME280;23457;51.966;8.230;2023-09-19T10:33:22;100387.78;;;18.79;83.48
37610;BME280;23457;51.966;8.230;2023-09-19T10:35:53;100381.53;;;18.84;82.73
37610;BME280;23457;51.966;8.230;2023-09-19T10:38:26;100377.22;;;18.80;83.09
37610;BME280;23457;51.966;8.230;2023-09-19T10:40:56;100386.47;;;18.98;85.74
37610;BME280;23457;51.966;8.230;2023-09-19T10:43:30;100362.78;;;18.98;82.31
37610;BME280;23457;51.966;8.230;2023-09-19T10:46:03;100360.47;;;19.20;81.91
37610;BME280;23457;51.966;8.230;2023-09-19T10:48:33;100365.34;;;19.35;80.61
37610;BME280;23457;51.966;8.230;2023-09-19T10:51:07;100366.22;;;19.70;81.07
37610;BME280;23457;51.966;8.230;2023-09-19T10:53:50;100364.88;;;19.87;78.21
37610;BME280;23457;51.966;8.230;2023-09-19T10:56:30;100364.97;;;19.84;79.81
37610;BME280;23457;51.966;8.230;2023-09-19T10:59:09;100351.97;;;19.77;76.63
37610;BME280;23457;51.966;8.230;2023-09-19T11:01:56;100357.22;;;19.77;77.04
37610;BME280;23457;51.966;8.230;2023-09-19T11:04:31;100359.22;;;19.68;74.88
37610;BME280;23457;51.966;8.230;2023-09-19T11:09:50;100348.88;;;19.93;76.67
37610;BME280;23457;51.966;8.230;2023-09-19T11:15:03;100331.31;;;20.53;74.31
37610;BME280;23457;51.966;8.230;2023-09-19T11:17:36;100336.25;;;20.34;74.42
37610;BME280;23457;51.966;8.230;2023-09-19T11:30:40;100338.00;;;20.64;71.82
37610;BME280;23457;51.966;8.230;2023-09-19T11:33:28;100330.31;;;20.57;69.24
37610;BME280;23457;51.966;8.230;2023-09-19T11:36:09;100338.28;;;20.83;69.71
37610;BME280;23457;51.966;8.230;2023-09-19T11:43:53;100337.13;;;20.64;70.50
37610;BME280;23457;51.966;8.230;2023-09-19T11:46:52;100327.81;;;21.06;70.23
37610;BME280;23457;51.966;8.230;2023-09-19T11:49:26;100329.13;;;20.93;68.78
37610;BME280;23457;51.966;8.230;2023-09-19T11:51:57;100330.78;;;20.97;71.12
37610;BME280;23457;51.966;8.230;2023-09-19T11:54:24;100319.34;;;20.69;69.61
37610;BME280;23457;51.966;8.230;2023-09-19T11:56:55;100337.53;;;20.78;70.06
37610;BME280;23457;51.966;8.230;2023-09-19T11:59:26;100345.19;;;20.59;69.55
37610;BME280;23457;51.966;8.230;2023-09-19T12:02:06;100339.97;;;20.58;65.82
37610;BME280;23457;51.966;8.230;2023-09-19T12:04:36;100340.13;;;20.80;65.33
37610;BME280;23457;51.966;8.230;2023-09-19T12:07:10;100329.91;;;20.69;68.85
37610;BME280;23457;51.966;8.230;2023-09-19T12:09:45;100323.03;;;20.91;65.92
37610;BME280;23457;51.966;8.230;2023-09-19T12:12:24;100317.00;;;20.88;64.57
37610;BME280;23457;51.966;8.230;2023-09-19T12:14:53;100325.81;;;21.15;64.76
37610;BME280;23457;51.966;8.230;2023-09-19T12:17:21;100317.88;;;21.15;66.11
37610;BME280;23457;51.966;8.230;2023-09-19T12:19:55;100319.56;;;21.16;64.02
37610;BME280;23457;51.966;8.230;2023-09-19T12:22:22;100306.50;;;21.39;63.93
37610;BME280;23457;51.966;8.230;2023-09-19T12:24:49;100317.72;;;21.45;64.60
37610;BME280;23457;51.966;8.230;2023-09-19T12:27:17;100313.72;;;21.59;64.24
37610;BME280;23457;51.966;8.230;2023-09-19T12:29:48;100312.56;;;21.66;61.75
37610;BME280;23457;51.966;8.230;2023-09-19T12:32:35;100313.75;;;21.57;60.02
37610;BME280;23457;51.966;8.230;2023-09-19T12:35:02;100313.63;;;21.85;59.76
37610;BME280;23457;51.966;8.230;2023-09-19T12:37:34;100318.16;;;22.06;62.19
37610;BME280;23457;51.966;8.230;2023-09-19T12:40:06;100315.66;;;22.03;60.66
37610;BME280;23457;51.966;8.230;2023-09-19T12:42:44;100311.13;;;21.57;59.84
37610;BME280;23457;51.966;8.230;2023-09-19T12:45:12;100304.34;;;21.50;60.69
37610;BME280;23457;51.966;8.230;2023-09-19T12:53:41;100303.56;;;21.95;58.91
37610;BME280;23457;51.966;8.230;2023-09-19T12:56:13;100291.22;;;21.95;60.03
37610;BME280;23457;51.966;8.230;2023-09-19T12:58:53;100293.53;;;22.28;57.80
37610;BME280;23457;51.966;8.230;2023-09-19T13:01:22;100287.38;;;22.04;57.38
37610;BME280;23457;51.966;8.230;2023-09-19T13:04:18;100290.59;;;22.35;58.88
37610;BME280;23457;51.966;8.230;2023-09-19T13:06:50;100289.34;;;22.22;59.25
37610;BME280;23457;51.966;8.230;2023-09-19T13:09:18;100286.41;;;22.51;58.49
37610;BME280;23457;51.966;8.230;2023-09-19T13:11:47;100277.41;;;22.34;56.64
37610;BME280;23457;51.966;8.230;2023-09-19T13:17:01;100288.63;;;21.94;57.59
37610;BME280;23457;51.966;8.230;2023-09-19T13:19:58;100298.31;;;22.18;57.35
37610;BME280;23457;51.966;8.230;2023-09-19T13:22:45;100295.28;;;22.50;58.50
37610;BME280;23457;51.966;8.230;2023-09-19T13:25:19;100294.47;;;21.78;59.14
37610;BME280;23457;51.966;8.230;2023-09-19T13:27:57;100288.19;;;22.06;59.90
37610;BME280;23457;51.966;8.230;2023-09-19T13:30:25;100290.69;;;21.62;59.17
37610;BME280;23457;51.966;8.230;2023-09-19T13:33:03;100281.94;;;21.84;60.71
37610;BME280;23457;51.966;8.230;2023-09-19T13:35:31;100286.63;;;22.24;57.96
37610;BME280;23457;51.966;8.230;2023-09-19T13:37:59;100283.91;;;22.03;57.05
37610;BME280;23457;51.966;8.230;2023-09-19T13:40:30;100286.88;;;21.93;58.20
37610;BME280;23457;51.966;8.230;2023-09-19T13:42:57;100289.34;;;22.22;58.10
37610;BME280;23457;51.966;8.230;2023-09-19T13:45:24;100284.84;;;22.24;57.58